sensor_id;sensor_type;location;lat;lon;timestamp;P1;durP1;ratioP1;P2;durP2;ratioP2
12425;SDS011;6277;49.824;9.562;2023-04-28T00:01:16;1.83;;;1.13;;
12425;SDS011;6277;49.824;9.562;2023-04-28T00:03:41;2.58;;;1.23;;
12425;SDS011;6277;49.824;9.562;2023-04-28T00:06:07;2.50;;;1.30;;
12425;SDS011;6277;49.824;9.562;2023-04-28T00:08:33;2.08;;;1.17;;
12425;SDS011;6277;49.824;9.562;2023-04-28T00:10:58;2.13;;;1.25;;
12425;SDS011;6277;49.824;9.562;2023-04-28T00:13:24;2.50;;;1.20;;
12425;SDS011;6277;49.824;9.562;2023-04-28T00:15:50;2.15;;;1.33;;
12425;SDS011;6277;49.824;9.562;2023-04-28T00:18:17;3.30;;;1.50;;
12425;SDS011;6277;49.824;9.562;2023-04-28T00:20:43;3.00;;;1.38;;
12425;SDS011;6277;49.824;9.562;2023-04-28T00:23:08;1.75;;;1.25;;
12425;SDS011;6277;49.824;9.562;2023-04-28T00:25:34;2.55;;;1.40;;
12425;SDS011;6277;49.824;9.562;2023-04-28T00:27:59;1.70;;;1.40;;
12425;SDS011;6277;49.824;9.562;2023-04-28T00:30:25;2.00;;;1.40;;
12425;SDS011;6277;49.824;9.562;2023-04-28T00:32:51;2.20;;;1.52;;
12425;SDS011;6277;49.824;9.562;2023-04-28T00:35:17;3.72;;;1.73;;
12425;SDS011;6277;49.824;9.562;2023-04-28T00:37:42;2.00;;;1.40;;
12425;SDS011;6277;49.824;9.562;2023-04-28T00:40:08;3.15;;;1.40;;
12425;SDS011;6277;49.824;9.562;2023-04-28T00:42:34;2.88;;;1.58;;
12425;SDS011;6277;49.824;9.562;2023-04-28T00:44:59;2.92;;;1.45;;
12425;SDS011;6277;49.824;9.562;2023-04-28T00:47:30;3.05;;;1.42;;
12425;SDS011;6277;49.824;9.562;2023-04-28T00:50:01;3.38;;;1.70;;
12425;SDS011;6277;49.824;9.562;2023-04-28T00:52:29;3.00;;;1.73;;
12425;SDS011;6277;49.824;9.562;2023-04-28T00:54:55;3.15;;;1.40;;
12425;SDS011;6277;49.824;9.562;2023-04-28T00:57:22;2.10;;;1.60;;
12425;SDS011;6277;49.824;9.562;2023-04-28T00:59:47;2.60;;;1.48;;
12425;SDS011;6277;49.824;9.562;2023-04-28T01:02:13;2.90;;;1.45;;
12425;SDS011;6277;49.824;9.562;2023-04-28T01:04:42;2.80;;;1.48;;
12425;SDS011;6277;49.824;9.562;2023-04-28T01:07:09;3.05;;;1.30;;
12425;SDS011;6277;49.824;9.562;2023-04-28T01:09:35;2.72;;;1.42;;
12425;SDS011;6277;49.824;9.562;2023-04-28T01:12:01;1.55;;;1.10;;
12425;SDS011;6277;49.824;9.562;2023-04-28T01:14:26;2.72;;;1.50;;
12425;SDS011;6277;49.824;9.562;2023-04-28T01:16:52;2.58;;;1.40;;
12425;SDS011;6277;49.824;9.562;2023-04-28T01:19:21;2.13;;;1.67;;
12425;SDS011;6277;49.824;9.562;2023-04-28T01:21:47;2.22;;;1.27;;
12425;SDS011;6277;49.824;9.562;2023-04-28T01:24:16;4.25;;;1.95;;
12425;SDS011;6277;49.824;9.562;2023-04-28T01:26:42;2.90;;;1.55;;
12425;SDS011;6277;49.824;9.562;2023-04-28T01:29:09;3.25;;;1.70;;
12425;SDS011;6277;49.824;9.562;2023-04-28T01:31:34;3.22;;;1.40;;
12425;SDS011;6277;49.824;9.562;2023-04-28T01:34:00;3.30;;;1.80;;
12425;SDS011;6277;49.824;9.562;2023-04-28T01:36:25;1.40;;;1.30;;
12425;SDS011;6277;49.824;9.562;2023-04-28T01:38:52;2.88;;;1.55;;
12425;SDS011;6277;49.824;9.562;2023-04-28T01:41:18;2.08;;;1.38;;
12425;SDS011;6277;49.824;9.562;2023-04-28T01:43:43;3.40;;;1.88;;
12425;SDS011;6277;49.824;9.562;2023-04-28T01:46:09;5.28;;;1.60;;
12425;SDS011;6277;49.824;9.562;2023-04-28T01:48:35;1.92;;;1.25;;
12425;SDS011;6277;49.824;9.562;2023-04-28T01:51:00;2.67;;;1.52;;
12425;SDS011;6277;49.824;9.562;2023-04-28T01:53:26;2.50;;;1.50;;
12425;SDS011;6277;49.824;9.562;2023-04-28T01:55:52;2.47;;;1.70;;
12425;SDS011;6277;49.824;9.562;2023-04-28T01:58:18;4.45;;;1.73;;
12425;SDS011;6277;49.824;9.562;2023-04-28T02:00:43;3.10;;;1.58;;
12425;SDS011;6277;49.824;9.562;2023-04-28T02:03:09;2.42;;;1.48;;
12425;SDS011;6277;49.824;9.562;2023-04-28T02:05:35;2.67;;;1.67;;
12425;SDS011;6277;49.824;9.562;2023-04-28T02:08:01;3.03;;;1.60;;
12425;SDS011;6277;49.824;9.562;2023-04-28T02:10:27;3.45;;;1.58;;
12425;SDS011;6277;49.824;9.562;2023-04-28T02:12:52;4.88;;;2.10;;
12425;SDS011;6277;49.824;9.562;2023-04-28T02:15:18;2.75;;;1.58;;
12425;SDS011;6277;49.824;9.562;2023-04-28T02:17:43;4.32;;;1.63;;
12425;SDS011;6277;49.824;9.562;2023-04-28T02:20:09;5.90;;;1.88;;
12425;SDS011;6277;49.824;9.562;2023-04-28T02:22:35;2.25;;;1.55;;
12425;SDS011;6277;49.824;9.562;2023-04-28T02:25:01;2.97;;;1.38;;
12425;SDS011;6277;49.824;9.562;2023-04-28T02:27:26;2.30;;;1.60;;
12425;SDS011;6277;49.824;9.562;2023-04-28T02:29:52;2.75;;;1.40;;
12425;SDS011;6277;49.824;9.562;2023-04-28T02:32:18;3.00;;;1.50;;
12425;SDS011;6277;49.824;9.562;2023-04-28T02:34:43;1.95;;;1.55;;
12425;SDS011;6277;49.824;9.562;2023-04-28T02:37:09;2.28;;;1.70;;
12425;SDS011;6277;49.824;9.562;2023-04-28T02:39:34;2.97;;;1.73;;
12425;SDS011;6277;49.824;9.562;2023-04-28T02:42:00;3.45;;;1.80;;
12425;SDS011;6277;49.824;9.562;2023-04-28T02:44:29;3.40;;;1.60;;
12425;SDS011;6277;49.824;9.562;2023-04-28T02:46:54;3.00;;;1.58;;
12425;SDS011;6277;49.824;9.562;2023-04-28T02:49:20;3.30;;;1.80;;
12425;SDS011;6277;49.824;9.562;2023-04-28T02:51:46;4.70;;;2.88;;
12425;SDS011;6277;49.824;9.562;2023-04-28T02:54:11;3.00;;;2.17;;
12425;SDS011;6277;49.824;9.562;2023-04-28T02:56:36;4.35;;;2.25;;
12425;SDS011;6277;49.824;9.562;2023-04-28T02:59:04;2.95;;;1.80;;
12425;SDS011;6277;49.824;9.562;2023-04-28T03:01:30;2.92;;;1.90;;
12425;SDS011;6277;49.824;9.562;2023-04-28T03:03:56;2.50;;;2.10;;
12425;SDS011;6277;49.824;9.562;2023-04-28T03:06:21;5.03;;;2.15;;
12425;SDS011;6277;49.824;9.562;2023-04-28T03:08:47;3.05;;;1.90;;
12425;SDS011;6277;49.824;9.562;2023-04-28T03:11:12;4.15;;;2.22;;
12425;SDS011;6277;49.824;9.562;2023-04-28T03:13:38;3.85;;;2.03;;
12425;SDS011;6277;49.824;9.562;2023-04-28T03:16:03;4.03;;;2.00;;
12425;SDS011;6277;49.824;9.562;2023-04-28T03:18:29;3.47;;;2.70;;
12425;SDS011;6277;49.824;9.562;2023-04-28T03:20:55;5.20;;;3.25;;
12425;SDS011;6277;49.824;9.562;2023-04-28T03:23:21;3.70;;;2.30;;
12425;SDS011;6277;49.824;9.562;2023-04-28T03:25:46;3.38;;;2.13;;
12425;SDS011;6277;49.824;9.562;2023-04-28T03:28:12;3.83;;;2.47;;
12425;SDS011;6277;49.824;9.562;2023-04-28T03:30:37;3.22;;;2.13;;
12425;SDS011;6277;49.824;9.562;2023-04-28T03:33:03;2.50;;;2.15;;
12425;SDS011;6277;49.824;9.562;2023-04-28T03:35:28;3.38;;;1.98;;
12425;SDS011;6277;49.824;9.562;2023-04-28T03:37:54;2.40;;;1.63;;
12425;SDS011;6277;49.824;9.562;2023-04-28T03:40:19;3.25;;;1.50;;
12425;SDS011;6277;49.824;9.562;2023-04-28T03:42:45;3.35;;;1.73;;
12425;SDS011;6277;49.824;9.562;2023-04-28T03:45:10;3.90;;;1.80;;
12425;SDS011;6277;49.824;9.562;2023-04-28T03:47:36;2.38;;;1.67;;
12425;SDS011;6277;49.824;9.562;2023-04-28T03:50:02;4.45;;;1.90;;
12425;SDS011;6277;49.824;9.562;2023-04-28T03:52:27;4.75;;;1.70;;
12425;SDS011;6277;49.824;9.562;2023-04-28T03:54:53;2.60;;;1.55;;
12425;SDS011;6277;49.824;9.562;2023-04-28T03:57:18;3.70;;;1.55;;
12425;SDS011;6277;49.824;9.562;2023-04-28T03:59:44;4.57;;;1.80;;
12425;SDS011;6277;49.824;9.562;2023-04-28T04:02:10;2.38;;;1.55;;
12425;SDS011;6277;49.824;9.562;2023-04-28T04:04:35;2.35;;;1.63;;
12425;SDS011;6277;49.824;9.562;2023-04-28T04:07:01;2.25;;;1.67;;
12425;SDS011;6277;49.824;9.562;2023-04-28T04:09:26;2.60;;;1.67;;
12425;SDS011;6277;49.824;9.562;2023-04-28T04:11:52;1.92;;;1.60;;
12425;SDS011;6277;49.824;9.562;2023-04-28T04:14:17;2.33;;;1.67;;
12425;SDS011;6277;49.824;9.562;2023-04-28T04:16:43;4.15;;;1.95;;
12425;SDS011;6277;49.824;9.562;2023-04-28T04:19:11;3.97;;;2.00;;
12425;SDS011;6277;49.824;9.562;2023-04-28T04:21:36;3.55;;;1.90;;
12425;SDS011;6277;49.824;9.562;2023-04-28T04:24:02;3.38;;;2.08;;
12425;SDS011;6277;49.824;9.562;2023-04-28T04:26:27;1.75;;;1.58;;
12425;SDS011;6277;49.824;9.562;2023-04-28T04:28:53;3.35;;;1.67;;
12425;SDS011;6277;49.824;9.562;2023-04-28T04:31:18;2.40;;;1.60;;
12425;SDS011;6277;49.824;9.562;2023-04-28T04:33:44;2.28;;;1.80;;
12425;SDS011;6277;49.824;9.562;2023-04-28T04:36:09;4.18;;;1.50;;
12425;SDS011;6277;49.824;9.562;2023-04-28T04:38:36;5.40;;;1.92;;
12425;SDS011;6277;49.824;9.562;2023-04-28T04:41:01;3.63;;;1.80;;
12425;SDS011;6277;49.824;9.562;2023-04-28T04:43:27;3.58;;;1.80;;
12425;SDS011;6277;49.824;9.562;2023-04-28T04:45:52;2.78;;;1.63;;
12425;SDS011;6277;49.824;9.562;2023-04-28T04:48:19;3.05;;;1.80;;
12425;SDS011;6277;49.824;9.562;2023-04-28T04:50:45;2.97;;;1.70;;
12425;SDS011;6277;49.824;9.562;2023-04-28T04:53:10;2.88;;;1.83;;
12425;SDS011;6277;49.824;9.562;2023-04-28T04:55:36;3.63;;;1.92;;
12425;SDS011;6277;49.824;9.562;2023-04-28T04:58:02;2.25;;;1.40;;
12425;SDS011;6277;49.824;9.562;2023-04-28T05:00:28;2.05;;;1.60;;
12425;SDS011;6277;49.824;9.562;2023-04-28T05:02:53;4.50;;;2.13;;
12425;SDS011;6277;49.824;9.562;2023-04-28T05:05:19;3.80;;;2.20;;
12425;SDS011;6277;49.824;9.562;2023-04-28T05:07:44;2.72;;;1.75;;
12425;SDS011;6277;49.824;9.562;2023-04-28T05:10:10;2.85;;;1.70;;
12425;SDS011;6277;49.824;9.562;2023-04-28T05:12:36;3.35;;;1.67;;
12425;SDS011;6277;49.824;9.562;2023-04-28T05:15:03;1.92;;;1.48;;
12425;SDS011;6277;49.824;9.562;2023-04-28T05:17:30;3.58;;;1.80;;
12425;SDS011;6277;49.824;9.562;2023-04-28T05:19:56;4.25;;;1.90;;
12425;SDS011;6277;49.824;9.562;2023-04-28T05:22:21;3.72;;;1.85;;
12425;SDS011;6277;49.824;9.562;2023-04-28T05:24:47;1.63;;;1.48;;
12425;SDS011;6277;49.824;9.562;2023-04-28T05:27:12;3.00;;;1.88;;
12425;SDS011;6277;49.824;9.562;2023-04-28T05:29:38;3.40;;;1.90;;
12425;SDS011;6277;49.824;9.562;2023-04-28T05:32:03;4.45;;;1.88;;
12425;SDS011;6277;49.824;9.562;2023-04-28T05:34:29;4.18;;;2.00;;
12425;SDS011;6277;49.824;9.562;2023-04-28T05:36:55;4.70;;;2.50;;
12425;SDS011;6277;49.824;9.562;2023-04-28T05:39:21;3.67;;;2.63;;
12425;SDS011;6277;49.824;9.562;2023-04-28T05:41:46;4.63;;;2.28;;
12425;SDS011;6277;49.824;9.562;2023-04-28T05:44:12;4.72;;;2.10;;
12425;SDS011;6277;49.824;9.562;2023-04-28T05:46:37;2.65;;;1.85;;
12425;SDS011;6277;49.824;9.562;2023-04-28T05:49:03;4.35;;;2.05;;
12425;SDS011;6277;49.824;9.562;2023-04-28T05:51:28;4.35;;;2.38;;
12425;SDS011;6277;49.824;9.562;2023-04-28T05:53:54;2.67;;;1.92;;
12425;SDS011;6277;49.824;9.562;2023-04-28T05:56:19;2.75;;;1.77;;
12425;SDS011;6277;49.824;9.562;2023-04-28T05:58:45;7.85;;;2.00;;
12425;SDS011;6277;49.824;9.562;2023-04-28T06:01:14;2.67;;;2.00;;
12425;SDS011;6277;49.824;9.562;2023-04-28T06:03:40;4.93;;;2.35;;
12425;SDS011;6277;49.824;9.562;2023-04-28T06:06:06;3.22;;;2.20;;
12425;SDS011;6277;49.824;9.562;2023-04-28T06:08:32;2.42;;;2.03;;
12425;SDS011;6277;49.824;9.562;2023-04-28T06:10:58;6.25;;;2.50;;
12425;SDS011;6277;49.824;9.562;2023-04-28T06:13:23;4.03;;;2.70;;
12425;SDS011;6277;49.824;9.562;2023-04-28T06:15:49;5.68;;;2.40;;
12425;SDS011;6277;49.824;9.562;2023-04-28T06:18:14;4.30;;;2.30;;
12425;SDS011;6277;49.824;9.562;2023-04-28T06:20:40;5.28;;;2.25;;
12425;SDS011;6277;49.824;9.562;2023-04-28T06:23:06;3.92;;;2.70;;
12425;SDS011;6277;49.824;9.562;2023-04-28T06:25:33;3.00;;;2.60;;
12425;SDS011;6277;49.824;9.562;2023-04-28T06:27:59;3.42;;;2.70;;
12425;SDS011;6277;49.824;9.562;2023-04-28T06:30:24;3.35;;;2.40;;
12425;SDS011;6277;49.824;9.562;2023-04-28T06:32:50;4.82;;;3.00;;
12425;SDS011;6277;49.824;9.562;2023-04-28T06:35:16;3.25;;;2.38;;
12425;SDS011;6277;49.824;9.562;2023-04-28T06:37:41;5.45;;;2.75;;
12425;SDS011;6277;49.824;9.562;2023-04-28T06:40:07;4.13;;;2.35;;
12425;SDS011;6277;49.824;9.562;2023-04-28T06:42:34;4.40;;;2.10;;
12425;SDS011;6277;49.824;9.562;2023-04-28T06:44:59;3.47;;;2.45;;
12425;SDS011;6277;49.824;9.562;2023-04-28T06:47:25;3.13;;;2.13;;
12425;SDS011;6277;49.824;9.562;2023-04-28T06:49:50;3.03;;;2.47;;
12425;SDS011;6277;49.824;9.562;2023-04-28T06:52:16;4.13;;;2.33;;
12425;SDS011;6277;49.824;9.562;2023-04-28T06:54:42;4.70;;;2.42;;
12425;SDS011;6277;49.824;9.562;2023-04-28T06:57:07;5.03;;;2.33;;
12425;SDS011;6277;49.824;9.562;2023-04-28T06:59:33;5.45;;;2.55;;
12425;SDS011;6277;49.824;9.562;2023-04-28T07:01:59;5.15;;;2.65;;
12425;SDS011;6277;49.824;9.562;2023-04-28T07:04:24;3.65;;;2.60;;
12425;SDS011;6277;49.824;9.562;2023-04-28T07:06:51;3.88;;;2.50;;
12425;SDS011;6277;49.824;9.562;2023-04-28T07:09:17;3.85;;;2.40;;
12425;SDS011;6277;49.824;9.562;2023-04-28T07:11:43;3.95;;;3.10;;
12425;SDS011;6277;49.824;9.562;2023-04-28T07:14:08;3.85;;;3.40;;
12425;SDS011;6277;49.824;9.562;2023-04-28T07:16:34;5.20;;;3.10;;
12425;SDS011;6277;49.824;9.562;2023-04-28T07:19:00;3.95;;;3.28;;
12425;SDS011;6277;49.824;9.562;2023-04-28T07:21:25;3.55;;;2.83;;
12425;SDS011;6277;49.824;9.562;2023-04-28T07:23:52;3.55;;;2.90;;
12425;SDS011;6277;49.824;9.562;2023-04-28T07:26:20;3.78;;;2.67;;
12425;SDS011;6277;49.824;9.562;2023-04-28T07:28:46;5.03;;;2.40;;
12425;SDS011;6277;49.824;9.562;2023-04-28T07:31:12;3.58;;;2.53;;
12425;SDS011;6277;49.824;9.562;2023-04-28T07:33:37;3.00;;;2.53;;
12425;SDS011;6277;49.824;9.562;2023-04-28T07:36:03;5.82;;;3.63;;
12425;SDS011;6277;49.824;9.562;2023-04-28T07:38:29;4.15;;;3.13;;
12425;SDS011;6277;49.824;9.562;2023-04-28T07:40:54;4.70;;;2.95;;
12425;SDS011;6277;49.824;9.562;2023-04-28T07:43:20;5.03;;;2.70;;
12425;SDS011;6277;49.824;9.562;2023-04-28T07:45:45;4.97;;;2.90;;
12425;SDS011;6277;49.824;9.562;2023-04-28T07:48:13;5.30;;;3.30;;
12425;SDS011;6277;49.824;9.562;2023-04-28T07:50:39;5.47;;;3.63;;
12425;SDS011;6277;49.824;9.562;2023-04-28T07:53:04;4.82;;;3.50;;
12425;SDS011;6277;49.824;9.562;2023-04-28T07:55:30;5.25;;;3.38;;
12425;SDS011;6277;49.824;9.562;2023-04-28T07:57:55;5.28;;;3.20;;
12425;SDS011;6277;49.824;9.562;2023-04-28T08:00:22;5.93;;;3.20;;
12425;SDS011;6277;49.824;9.562;2023-04-28T08:02:48;3.88;;;3.10;;
12425;SDS011;6277;49.824;9.562;2023-04-28T08:05:14;6.30;;;4.05;;
12425;SDS011;6277;49.824;9.562;2023-04-28T08:07:41;4.60;;;3.53;;
12425;SDS011;6277;49.824;9.562;2023-04-28T08:10:10;4.22;;;3.15;;
12425;SDS011;6277;49.824;9.562;2023-04-28T08:12:36;3.85;;;3.00;;
12425;SDS011;6277;49.824;9.562;2023-04-28T08:15:02;6.28;;;4.20;;
12425;SDS011;6277;49.824;9.562;2023-04-28T08:17:28;10.98;;;7.13;;
12425;SDS011;6277;49.824;9.562;2023-04-28T08:19:53;18.00;;;10.15;;
12425;SDS011;6277;49.824;9.562;2023-04-28T08:22:19;28.08;;;14.15;;
12425;SDS011;6277;49.824;9.562;2023-04-28T08:24:45;22.65;;;12.25;;
12425;SDS011;6277;49.824;9.562;2023-04-28T08:27:10;13.82;;;9.00;;
12425;SDS011;6277;49.824;9.562;2023-04-28T08:29:36;9.38;;;5.70;;
12425;SDS011;6277;49.824;9.562;2023-04-28T08:32:02;7.25;;;5.22;;
12425;SDS011;6277;49.824;9.562;2023-04-28T08:34:30;6.38;;;4.65;;
12425;SDS011;6277;49.824;9.562;2023-04-28T08:36:56;5.30;;;4.07;;
12425;SDS011;6277;49.824;9.562;2023-04-28T08:39:22;4.15;;;3.50;;
12425;SDS011;6277;49.824;9.562;2023-04-28T08:41:48;4.18;;;3.03;;
12425;SDS011;6277;49.824;9.562;2023-04-28T08:44:14;3.85;;;2.85;;
12425;SDS011;6277;49.824;9.562;2023-04-28T08:46:40;3.28;;;2.97;;
12425;SDS011;6277;49.824;9.562;2023-04-28T08:49:06;3.08;;;2.78;;
12425;SDS011;6277;49.824;9.562;2023-04-28T08:51:43;4.53;;;2.60;;
12425;SDS011;6277;49.824;9.562;2023-04-28T08:54:30;3.55;;;2.78;;
12425;SDS011;6277;49.824;9.562;2023-04-28T08:56:56;3.38;;;2.38;;
12425;SDS011;6277;49.824;9.562;2023-04-28T08:59:22;3.60;;;2.72;;
12425;SDS011;6277;49.824;9.562;2023-04-28T09:01:48;3.47;;;2.60;;
12425;SDS011;6277;49.824;9.562;2023-04-28T09:04:17;3.92;;;3.10;;
12425;SDS011;6277;49.824;9.562;2023-04-28T09:06:43;3.30;;;2.75;;
12425;SDS011;6277;49.824;9.562;2023-04-28T09:14:26;6.00;;;4.13;;
12425;SDS011;6277;49.824;9.562;2023-04-28T09:16:59;5.47;;;4.15;;
12425;SDS011;6277;49.824;9.562;2023-04-28T09:19:32;4.97;;;3.83;;
12425;SDS011;6277;49.824;9.562;2023-04-28T09:21:59;6.80;;;4.32;;
12425;SDS011;6277;49.824;9.562;2023-04-28T09:24:29;4.72;;;3.78;;
12425;SDS011;6277;49.824;9.562;2023-04-28T09:29:26;3.53;;;2.88;;
12425;SDS011;6277;49.824;9.562;2023-04-28T09:31:52;3.78;;;3.08;;
12425;SDS011;6277;49.824;9.562;2023-04-28T09:34:18;5.93;;;3.33;;
12425;SDS011;6277;49.824;9.562;2023-04-28T09:36:44;4.13;;;3.20;;
12425;SDS011;6277;49.824;9.562;2023-04-28T09:39:09;3.50;;;3.17;;
12425;SDS011;6277;49.824;9.562;2023-04-28T09:41:40;4.10;;;2.92;;
12425;SDS011;6277;49.824;9.562;2023-04-28T09:44:10;4.40;;;3.47;;
12425;SDS011;6277;49.824;9.562;2023-04-28T09:46:37;4.03;;;3.53;;
12425;SDS011;6277;49.824;9.562;2023-04-28T09:49:03;4.05;;;3.45;;
12425;SDS011;6277;49.824;9.562;2023-04-28T09:51:28;4.45;;;3.35;;
12425;SDS011;6277;49.824;9.562;2023-04-28T09:53:54;5.43;;;3.40;;
12425;SDS011;6277;49.824;9.562;2023-04-28T09:56:24;3.85;;;3.25;;
12425;SDS011;6277;49.824;9.562;2023-04-28T09:58:51;4.65;;;3.80;;
12425;SDS011;6277;49.824;9.562;2023-04-28T10:01:18;4.45;;;3.47;;
12425;SDS011;6277;49.824;9.562;2023-04-28T10:03:44;4.35;;;3.50;;
12425;SDS011;6277;49.824;9.562;2023-04-28T10:06:10;5.78;;;3.75;;
12425;SDS011;6277;49.824;9.562;2023-04-28T10:08:35;3.70;;;3.38;;
12425;SDS011;6277;49.824;9.562;2023-04-28T10:11:02;5.03;;;3.80;;
12425;SDS011;6277;49.824;9.562;2023-04-28T10:13:27;4.60;;;3.58;;
12425;SDS011;6277;49.824;9.562;2023-04-28T10:15:53;4.80;;;3.67;;
12425;SDS011;6277;49.824;9.562;2023-04-28T10:18:19;5.32;;;3.58;;
12425;SDS011;6277;49.824;9.562;2023-04-28T10:20:56;4.47;;;3.35;;
12425;SDS011;6277;49.824;9.562;2023-04-28T10:26:20;5.05;;;3.85;;
12425;SDS011;6277;49.824;9.562;2023-04-28T10:28:51;6.00;;;3.70;;
12425;SDS011;6277;49.824;9.562;2023-04-28T10:31:17;4.72;;;3.75;;
12425;SDS011;6277;49.824;9.562;2023-04-28T10:33:47;4.57;;;3.75;;
12425;SDS011;6277;49.824;9.562;2023-04-28T10:39:11;5.95;;;4.05;;
12425;SDS011;6277;49.824;9.562;2023-04-28T10:41:37;4.60;;;3.88;;
12425;SDS011;6277;49.824;9.562;2023-04-28T10:44:40;4.57;;;4.10;;
12425;SDS011;6277;49.824;9.562;2023-04-28T10:47:01;4.93;;;4.35;;
12425;SDS011;6277;49.824;9.562;2023-04-28T11:00:42;5.22;;;4.40;;
12425;SDS011;6277;49.824;9.562;2023-04-28T11:03:31;4.40;;;4.00;;
12425;SDS011;6277;49.824;9.562;2023-04-28T11:06:16;4.35;;;3.95;;
12425;SDS011;6277;49.824;9.562;2023-04-28T11:08:45;5.22;;;4.63;;
12425;SDS011;6277;49.824;9.562;2023-04-28T11:11:15;4.72;;;4.10;;
12425;SDS011;6277;49.824;9.562;2023-04-28T11:13:43;5.60;;;4.78;;
12425;SDS011;6277;49.824;9.562;2023-04-28T11:16:11;5.15;;;4.07;;
12425;SDS011;6277;49.824;9.562;2023-04-28T11:21:37;3.78;;;3.40;;
12425;SDS011;6277;49.824;9.562;2023-04-28T11:24:07;4.10;;;3.70;;
12425;SDS011;6277;49.824;9.562;2023-04-28T11:26:35;4.38;;;3.97;;
12425;SDS011;6277;49.824;9.562;2023-04-28T11:29:02;4.25;;;3.80;;
12425;SDS011;6277;49.824;9.562;2023-04-28T11:31:28;4.82;;;4.03;;
12425;SDS011;6277;49.824;9.562;2023-04-28T11:33:55;4.70;;;4.20;;
12425;SDS011;6277;49.824;9.562;2023-04-28T11:36:33;4.63;;;4.22;;
12425;SDS011;6277;49.824;9.562;2023-04-28T11:39:00;5.28;;;4.40;;
12425;SDS011;6277;49.824;9.562;2023-04-28T11:41:28;4.82;;;3.83;;
12425;SDS011;6277;49.824;9.562;2023-04-28T11:43:55;4.35;;;3.95;;
12425;SDS011;6277;49.824;9.562;2023-04-28T11:46:21;5.03;;;4.18;;
12425;SDS011;6277;49.824;9.562;2023-04-28T11:48:48;5.30;;;4.25;;
12425;SDS011;6277;49.824;9.562;2023-04-28T11:51:33;5.20;;;4.35;;
12425;SDS011;6277;49.824;9.562;2023-04-28T11:54:00;5.07;;;4.15;;
12425;SDS011;6277;49.824;9.562;2023-04-28T11:56:27;4.72;;;4.05;;
12425;SDS011;6277;49.824;9.562;2023-04-28T11:59:04;5.40;;;3.95;;
12425;SDS011;6277;49.824;9.562;2023-04-28T12:01:32;4.78;;;3.72;;
12425;SDS011;6277;49.824;9.562;2023-04-28T12:03:58;4.68;;;4.20;;
12425;SDS011;6277;49.824;9.562;2023-04-28T12:06:24;4.47;;;4.07;;
12425;SDS011;6277;49.824;9.562;2023-04-28T12:08:50;6.18;;;4.57;;
12425;SDS011;6277;49.824;9.562;2023-04-28T12:11:16;5.30;;;4.80;;
12425;SDS011;6277;49.824;9.562;2023-04-28T12:13:42;5.95;;;4.93;;
12425;SDS011;6277;49.824;9.562;2023-04-28T12:16:08;5.78;;;4.35;;
12425;SDS011;6277;49.824;9.562;2023-04-28T12:18:36;6.10;;;4.78;;
12425;SDS011;6277;49.824;9.562;2023-04-28T12:21:03;6.10;;;4.57;;
12425;SDS011;6277;49.824;9.562;2023-04-28T12:25:59;5.72;;;4.78;;
12425;SDS011;6277;49.824;9.562;2023-04-28T12:28:37;4.90;;;4.20;;
12425;SDS011;6277;49.824;9.562;2023-04-28T12:31:04;4.55;;;4.05;;
12425;SDS011;6277;49.824;9.562;2023-04-28T12:33:32;4.55;;;3.92;;
12425;SDS011;6277;49.824;9.562;2023-04-28T12:36:02;4.38;;;3.97;;
12425;SDS011;6277;49.824;9.562;2023-04-28T12:38:28;4.32;;;3.83;;
12425;SDS011;6277;49.824;9.562;2023-04-28T12:40:54;4.30;;;3.90;;
12425;SDS011;6277;49.824;9.562;2023-04-28T12:43:20;4.32;;;3.60;;
12425;SDS011;6277;49.824;9.562;2023-04-28T12:45:51;3.47;;;3.17;;
12425;SDS011;6277;49.824;9.562;2023-04-28T12:48:18;3.70;;;3.00;;
12425;SDS011;6277;49.824;9.562;2023-04-28T12:50:44;3.40;;;3.10;;
12425;SDS011;6277;49.824;9.562;2023-04-28T12:53:10;3.10;;;2.80;;
12425;SDS011;6277;49.824;9.562;2023-04-28T12:55:36;2.88;;;2.67;;
12425;SDS011;6277;49.824;9.562;2023-04-28T12:58:04;3.33;;;2.83;;
12425;SDS011;6277;49.824;9.562;2023-04-28T13:00:30;3.25;;;2.90;;
12425;SDS011;6277;49.824;9.562;2023-04-28T13:02:56;3.03;;;2.72;;
12425;SDS011;6277;49.824;9.562;2023-04-28T13:05:21;4.47;;;2.97;;
12425;SDS011;6277;49.824;9.562;2023-04-28T13:07:47;3.15;;;2.75;;
12425;SDS011;6277;49.824;9.562;2023-04-28T13:10:13;3.05;;;2.75;;
12425;SDS011;6277;49.824;9.562;2023-04-28T13:12:39;3.17;;;2.88;;
12425;SDS011;6277;49.824;9.562;2023-04-28T13:15:05;3.25;;;2.85;;
12425;SDS011;6277;49.824;9.562;2023-04-28T13:17:31;3.28;;;2.80;;
12425;SDS011;6277;49.824;9.562;2023-04-28T13:19:58;3.05;;;2.85;;
12425;SDS011;6277;49.824;9.562;2023-04-28T13:22:25;2.90;;;2.70;;
12425;SDS011;6277;49.824;9.562;2023-04-28T13:24:51;2.65;;;2.35;;
12425;SDS011;6277;49.824;9.562;2023-04-28T13:27:16;2.65;;;2.45;;
12425;SDS011;6277;49.824;9.562;2023-04-28T13:29:42;3.05;;;2.75;;
12425;SDS011;6277;49.824;9.562;2023-04-28T13:32:08;3.85;;;2.92;;
12425;SDS011;6277;49.824;9.562;2023-04-28T13:34:34;3.20;;;2.90;;
12425;SDS011;6277;49.824;9.562;2023-04-28T13:37:01;3.15;;;2.70;;
12425;SDS011;6277;49.824;9.562;2023-04-28T13:39:27;2.80;;;2.30;;
12425;SDS011;6277;49.824;9.562;2023-04-28T13:41:52;2.85;;;2.17;;
12425;SDS011;6277;49.824;9.562;2023-04-28T13:44:18;3.53;;;2.28;;
12425;SDS011;6277;49.824;9.562;2023-04-28T13:46:43;2.58;;;2.38;;
12425;SDS011;6277;49.824;9.562;2023-04-28T13:49:10;3.08;;;2.75;;
12425;SDS011;6277;49.824;9.562;2023-04-28T13:51:35;3.08;;;2.65;;
12425;SDS011;6277;49.824;9.562;2023-04-28T13:54:01;3.03;;;2.70;;
12425;SDS011;6277;49.824;9.562;2023-04-28T13:56:33;2.92;;;2.63;;
12425;SDS011;6277;49.824;9.562;2023-04-28T13:59:00;2.72;;;2.50;;
12425;SDS011;6277;49.824;9.562;2023-04-28T14:01:26;3.70;;;2.83;;
12425;SDS011;6277;49.824;9.562;2023-04-28T14:03:51;2.83;;;2.63;;
12425;SDS011;6277;49.824;9.562;2023-04-28T14:06:17;3.00;;;2.60;;
12425;SDS011;6277;49.824;9.562;2023-04-28T14:08:43;2.92;;;2.50;;
12425;SDS011;6277;49.824;9.562;2023-04-28T14:11:08;3.35;;;2.78;;
12425;SDS011;6277;49.824;9.562;2023-04-28T14:13:35;2.67;;;2.47;;
12425;SDS011;6277;49.824;9.562;2023-04-28T14:16:00;3.28;;;2.97;;
12425;SDS011;6277;49.824;9.562;2023-04-28T14:18:27;2.72;;;2.53;;
12425;SDS011;6277;49.824;9.562;2023-04-28T14:20:53;2.22;;;2.03;;
12425;SDS011;6277;49.824;9.562;2023-04-28T14:23:19;1.90;;;1.80;;
12425;SDS011;6277;49.824;9.562;2023-04-28T14:25:48;1.70;;;1.55;;
12425;SDS011;6277;49.824;9.562;2023-04-28T14:28:14;2.75;;;2.00;;
12425;SDS011;6277;49.824;9.562;2023-04-28T14:30:40;1.83;;;1.70;;
12425;SDS011;6277;49.824;9.562;2023-04-28T14:33:05;2.03;;;1.77;;
12425;SDS011;6277;49.824;9.562;2023-04-28T14:35:31;1.52;;;1.42;;
12425;SDS011;6277;49.824;9.562;2023-04-28T14:37:58;1.33;;;1.10;;
12425;SDS011;6277;49.824;9.562;2023-04-28T14:40:24;1.25;;;1.15;;
12425;SDS011;6277;49.824;9.562;2023-04-28T14:42:49;0.93;;;0.82;;
12425;SDS011;6277;49.824;9.562;2023-04-28T14:45:15;1.10;;;1.00;;
12425;SDS011;6277;49.824;9.562;2023-04-28T14:47:40;1.23;;;1.10;;
12425;SDS011;6277;49.824;9.562;2023-04-28T14:50:06;1.10;;;0.98;;
12425;SDS011;6277;49.824;9.562;2023-04-28T14:52:32;1.10;;;1.00;;
12425;SDS011;6277;49.824;9.562;2023-04-28T14:54:59;1.10;;;1.00;;
12425;SDS011;6277;49.824;9.562;2023-04-28T14:57:25;1.20;;;1.10;;
12425;SDS011;6277;49.824;9.562;2023-04-28T14:59:51;0.82;;;0.82;;
12425;SDS011;6277;49.824;9.562;2023-04-28T15:02:17;0.75;;;0.75;;
12425;SDS011;6277;49.824;9.562;2023-04-28T15:04:45;0.88;;;0.88;;
12425;SDS011;6277;49.824;9.562;2023-04-28T15:07:11;0.80;;;0.80;;
12425;SDS011;6277;49.824;9.562;2023-04-28T15:09:37;0.63;;;0.63;;
12425;SDS011;6277;49.824;9.562;2023-04-28T15:12:03;1.27;;;0.70;;
12425;SDS011;6277;49.824;9.562;2023-04-28T15:14:29;0.80;;;0.63;;
12425;SDS011;6277;49.824;9.562;2023-04-28T15:16:55;0.60;;;0.60;;
12425;SDS011;6277;49.824;9.562;2023-04-28T15:19:20;0.60;;;0.60;;
12425;SDS011;6277;49.824;9.562;2023-04-28T15:21:46;1.38;;;0.80;;
12425;SDS011;6277;49.824;9.562;2023-04-28T15:24:13;0.63;;;0.63;;
12425;SDS011;6277;49.824;9.562;2023-04-28T15:26:39;0.40;;;0.40;;